Mason City, Nebraska
Current Conditions -  °F | °C
As of 10:53 AM on Saturday 25 Oct 2014 (Local Time) from KBBW Reporting Station
Clear Clear  
Wind Chill: 62°   Ceiling: Unl
Heat Index: 62°   Visibility: 10mi
Dew Point: 42°   Wind: 9mph
Humidity: 48%   Direction: 90°E
Pressure: 30.15"   Gusts: NA
Location:  41.22°N, 99.3°W
Report Text: KBBW 251553Z AUTO 09008KT 10SM CLR 17/06 A3015 RMK AO2 SLP205 T01670056
Loading
Personal Weather Stations






























Interactive Weather Map
Tropical Storm Tracking
New forecast layout! Learn more

10-Day Weather Forecast

Advertisements
Track Severe Weather on mobile